Babda, Lebanon
Current Conditions -  °F | °C
As of 7:00 PM on Friday 19 Dec 2014 (Local Time) from OLBA Reporting Station
Scattered Clouds Scattered Clouds  
Wind Chill: 64°   Ceiling: Unl
Heat Index: 64°   Visibility: 5mi
Dew Point: 55°   Wind: 5mph
Humidity: 73%   Direction: 100°E
Pressure: 30.12"   Gusts: NA
Location:  33.88°N, 35.57°E
Report Text: OLBA 191600Z 10004KT 8000 SCT026 18/13 Q1020
Loading
Personal Weather Stations






























Interactive Weather Map New forecast layout! Learn more

10-Day Weather Forecast

Advertisements
Track Severe Weather on mobile